sensor_id;sensor_type;location;lat;lon;timestamp;temperature;humidity
16901;DHT22;8567;52.540;6.434;2022-09-09T00:02:19;22.80;60.10
16901;DHT22;8567;52.540;6.434;2022-09-09T00:04:57;22.80;60.10
16901;DHT22;8567;52.540;6.434;2022-09-09T00:07:34;22.80;60.00
16901;DHT22;8567;52.540;6.434;2022-09-09T00:10:09;22.90;60.00
16901;DHT22;8567;52.540;6.434;2022-09-09T00:12:48;22.80;60.00
16901;DHT22;8567;52.540;6.434;2022-09-09T00:15:23;22.80;60.00
16901;DHT22;8567;52.540;6.434;2022-09-09T00:17:57;22.80;60.10
16901;DHT22;8567;52.540;6.434;2022-09-09T00:20:31;22.80;60.00
16901;DHT22;8567;52.540;6.434;2022-09-09T00:23:04;22.80;60.10
16901;DHT22;8567;52.540;6.434;2022-09-09T00:25:41;22.80;60.00
16901;DHT22;8567;52.540;6.434;2022-09-09T00:28:18;22.80;60.00
16901;DHT22;8567;52.540;6.434;2022-09-09T00:30:46;22.80;60.10
16901;DHT22;8567;52.540;6.434;2022-09-09T00:33:16;22.80;60.10
16901;DHT22;8567;52.540;6.434;2022-09-09T00:35:45;22.80;60.00
16901;DHT22;8567;52.540;6.434;2022-09-09T00:38:15;22.80;60.00
16901;DHT22;8567;52.540;6.434;2022-09-09T00:40:49;22.80;60.00
16901;DHT22;8567;52.540;6.434;2022-09-09T00:43:26;22.80;60.10
16901;DHT22;8567;52.540;6.434;2022-09-09T00:46:20;22.80;60.00
16901;DHT22;8567;52.540;6.434;2022-09-09T00:48:54;22.80;60.00
16901;DHT22;8567;52.540;6.434;2022-09-09T00:51:30;22.80;60.00
16901;DHT22;8567;52.540;6.434;2022-09-09T00:54:15;22.80;60.00
16901;DHT22;8567;52.540;6.434;2022-09-09T00:56:53;22.80;60.00
16901;DHT22;8567;52.540;6.434;2022-09-09T00:59:30;22.80;60.00
16901;DHT22;8567;52.540;6.434;2022-09-09T01:01:59;22.80;60.00
16901;DHT22;8567;52.540;6.434;2022-09-09T01:04:32;22.80;60.00
16901;DHT22;8567;52.540;6.434;2022-09-09T01:07:06;22.80;59.90
16901;DHT22;8567;52.540;6.434;2022-09-09T01:09:44;22.80;60.00
16901;DHT22;8567;52.540;6.434;2022-09-09T01:12:15;22.80;60.00
16901;DHT22;8567;52.540;6.434;2022-09-09T01:14:48;22.80;60.00
16901;DHT22;8567;52.540;6.434;2022-09-09T01:17:20;22.80;60.00
16901;DHT22;8567;52.540;6.434;2022-09-09T01:19:57;22.80;59.90
16901;DHT22;8567;52.540;6.434;2022-09-09T01:22:34;22.80;59.90
16901;DHT22;8567;52.540;6.434;2022-09-09T01:28:08;22.80;60.00
16901;DHT22;8567;52.540;6.434;2022-09-09T01:30:38;22.80;60.00
16901;DHT22;8567;52.540;6.434;2022-09-09T01:33:09;22.80;60.00
16901;DHT22;8567;52.540;6.434;2022-09-09T01:35:45;22.80;60.00
16901;DHT22;8567;52.540;6.434;2022-09-09T01:38:14;22.80;60.00
16901;DHT22;8567;52.540;6.434;2022-09-09T01:40:42;22.80;60.00
16901;DHT22;8567;52.540;6.434;2022-09-09T01:43:10;22.80;60.00
16901;DHT22;8567;52.540;6.434;2022-09-09T01:45:38;22.70;60.00
16901;DHT22;8567;52.540;6.434;2022-09-09T01:48:05;22.70;60.00
16901;DHT22;8567;52.540;6.434;2022-09-09T01:50:32;22.70;60.00
16901;DHT22;8567;52.540;6.434;2022-09-09T01:53:00;22.70;60.00
16901;DHT22;8567;52.540;6.434;2022-09-09T01:55:30;22.70;60.00
16901;DHT22;8567;52.540;6.434;2022-09-09T01:58:11;22.70;59.90
16901;DHT22;8567;52.540;6.434;2022-09-09T02:00:44;22.70;60.00
16901;DHT22;8567;52.540;6.434;2022-09-09T02:03:19;22.70;59.90
16901;DHT22;8567;52.540;6.434;2022-09-09T02:05:55;22.80;59.90
16901;DHT22;8567;52.540;6.434;2022-09-09T02:08:26;22.70;59.90
16901;DHT22;8567;52.540;6.434;2022-09-09T02:10:58;22.70;59.90
16901;DHT22;8567;52.540;6.434;2022-09-09T02:13:29;22.80;59.90
16901;DHT22;8567;52.540;6.434;2022-09-09T02:15:59;22.80;59.90
16901;DHT22;8567;52.540;6.434;2022-09-09T02:18:32;22.70;59.90
16901;DHT22;8567;52.540;6.434;2022-09-09T02:21:02;22.80;59.90
16901;DHT22;8567;52.540;6.434;2022-09-09T02:23:30;22.70;59.90
16901;DHT22;8567;52.540;6.434;2022-09-09T02:25:58;22.70;59.90
16901;DHT22;8567;52.540;6.434;2022-09-09T02:28:29;22.70;59.90
16901;DHT22;8567;52.540;6.434;2022-09-09T02:30:56;22.70;59.90
16901;DHT22;8567;52.540;6.434;2022-09-09T02:33:27;22.70;59.90
16901;DHT22;8567;52.540;6.434;2022-09-09T02:35:55;22.70;59.90
16901;DHT22;8567;52.540;6.434;2022-09-09T02:38:29;22.70;59.90
16901;DHT22;8567;52.540;6.434;2022-09-09T02:40:57;22.70;59.90
16901;DHT22;8567;52.540;6.434;2022-09-09T02:43:24;22.70;59.90
16901;DHT22;8567;52.540;6.434;2022-09-09T02:45:56;22.70;59.90
16901;DHT22;8567;52.540;6.434;2022-09-09T02:48:31;22.70;59.90
16901;DHT22;8567;52.540;6.434;2022-09-09T02:51:06;22.70;59.90
16901;DHT22;8567;52.540;6.434;2022-09-09T02:53:41;22.70;59.90
16901;DHT22;8567;52.540;6.434;2022-09-09T02:56:12;22.70;59.90
16901;DHT22;8567;52.540;6.434;2022-09-09T02:58:41;22.70;59.90
16901;DHT22;8567;52.540;6.434;2022-09-09T03:01:10;22.70;59.90
16901;DHT22;8567;52.540;6.434;2022-09-09T03:03:36;22.80;59.90
16901;DHT22;8567;52.540;6.434;2022-09-09T03:06:04;22.70;59.80
16901;DHT22;8567;52.540;6.434;2022-09-09T03:08:31;22.70;59.80
16901;DHT22;8567;52.540;6.434;2022-09-09T03:10:58;22.70;59.80
16901;DHT22;8567;52.540;6.434;2022-09-09T03:13:26;22.70;59.80
16901;DHT22;8567;52.540;6.434;2022-09-09T03:15:54;22.70;59.80
16901;DHT22;8567;52.540;6.434;2022-09-09T03:18:22;22.70;59.80
16901;DHT22;8567;52.540;6.434;2022-09-09T03:20:49;22.70;59.80
16901;DHT22;8567;52.540;6.434;2022-09-09T03:23:16;22.70;59.90
16901;DHT22;8567;52.540;6.434;2022-09-09T03:25:47;22.70;59.80
16901;DHT22;8567;52.540;6.434;2022-09-09T03:28:14;22.70;59.80
16901;DHT22;8567;52.540;6.434;2022-09-09T03:30:41;22.70;59.80
16901;DHT22;8567;52.540;6.434;2022-09-09T03:33:07;22.70;59.90
16901;DHT22;8567;52.540;6.434;2022-09-09T03:35:36;22.70;59.90
16901;DHT22;8567;52.540;6.434;2022-09-09T03:38:02;22.70;59.80
16901;DHT22;8567;52.540;6.434;2022-09-09T03:40:29;22.70;59.90
16901;DHT22;8567;52.540;6.434;2022-09-09T03:42:56;22.70;59.90
16901;DHT22;8567;52.540;6.434;2022-09-09T03:45:23;22.70;59.80
16901;DHT22;8567;52.540;6.434;2022-09-09T03:47:49;22.70;59.90
16901;DHT22;8567;52.540;6.434;2022-09-09T03:50:16;22.70;59.90
16901;DHT22;8567;52.540;6.434;2022-09-09T03:52:45;22.70;59.90
16901;DHT22;8567;52.540;6.434;2022-09-09T03:55:12;22.70;59.90
16901;DHT22;8567;52.540;6.434;2022-09-09T03:57:39;22.70;59.80
16901;DHT22;8567;52.540;6.434;2022-09-09T04:00:07;22.70;59.80
16901;DHT22;8567;52.540;6.434;2022-09-09T04:02:34;22.70;59.80
16901;DHT22;8567;52.540;6.434;2022-09-09T04:05:01;22.70;59.80
16901;DHT22;8567;52.540;6.434;2022-09-09T04:07:27;22.70;59.80
16901;DHT22;8567;52.540;6.434;2022-09-09T04:09:55;22.70;59.80
16901;DHT22;8567;52.540;6.434;2022-09-09T04:12:22;22.70;59.80
16901;DHT22;8567;52.540;6.434;2022-09-09T04:14:49;22.70;59.80
16901;DHT22;8567;52.540;6.434;2022-09-09T04:17:16;22.70;59.80
16901;DHT22;8567;52.540;6.434;2022-09-09T04:19:42;22.70;59.80
16901;DHT22;8567;52.540;6.434;2022-09-09T04:22:09;22.60;59.80
16901;DHT22;8567;52.540;6.434;2022-09-09T04:24:36;22.70;59.80
16901;DHT22;8567;52.540;6.434;2022-09-09T04:27:04;22.60;59.80
16901;DHT22;8567;52.540;6.434;2022-09-09T04:29:31;22.60;59.80
16901;DHT22;8567;52.540;6.434;2022-09-09T04:31:58;22.60;59.80
16901;DHT22;8567;52.540;6.434;2022-09-09T04:34:25;22.60;59.80
16901;DHT22;8567;52.540;6.434;2022-09-09T04:36:52;22.60;59.80
16901;DHT22;8567;52.540;6.434;2022-09-09T04:39:20;22.60;59.80
16901;DHT22;8567;52.540;6.434;2022-09-09T04:41:46;22.60;59.80
16901;DHT22;8567;52.540;6.434;2022-09-09T04:44:15;22.60;59.80
16901;DHT22;8567;52.540;6.434;2022-09-09T04:46:41;22.60;59.80
16901;DHT22;8567;52.540;6.434;2022-09-09T04:49:08;22.60;59.80
16901;DHT22;8567;52.540;6.434;2022-09-09T04:51:35;22.60;59.80
16901;DHT22;8567;52.540;6.434;2022-09-09T04:54:02;22.60;59.80
16901;DHT22;8567;52.540;6.434;2022-09-09T04:56:28;22.60;59.90
16901;DHT22;8567;52.540;6.434;2022-09-09T04:58:55;22.60;59.80
16901;DHT22;8567;52.540;6.434;2022-09-09T05:01:23;22.60;59.80
16901;DHT22;8567;52.540;6.434;2022-09-09T05:03:51;22.60;59.80
16901;DHT22;8567;52.540;6.434;2022-09-09T05:06:20;22.60;59.70
16901;DHT22;8567;52.540;6.434;2022-09-09T05:08:47;22.60;59.70
16901;DHT22;8567;52.540;6.434;2022-09-09T05:11:19;22.60;59.70
16901;DHT22;8567;52.540;6.434;2022-09-09T05:13:46;22.60;59.70
16901;DHT22;8567;52.540;6.434;2022-09-09T05:16:13;22.60;59.70
16901;DHT22;8567;52.540;6.434;2022-09-09T05:18:42;22.60;59.70
16901;DHT22;8567;52.540;6.434;2022-09-09T05:21:09;22.60;59.70
16901;DHT22;8567;52.540;6.434;2022-09-09T05:23:36;22.60;59.70
16901;DHT22;8567;52.540;6.434;2022-09-09T05:26:03;22.60;59.70
16901;DHT22;8567;52.540;6.434;2022-09-09T05:28:30;22.60;59.70
16901;DHT22;8567;52.540;6.434;2022-09-09T05:30:58;22.60;59.70
16901;DHT22;8567;52.540;6.434;2022-09-09T05:33:26;22.60;59.70
16901;DHT22;8567;52.540;6.434;2022-09-09T05:35:59;22.60;59.70
16901;DHT22;8567;52.540;6.434;2022-09-09T05:38:27;22.60;59.60
16901;DHT22;8567;52.540;6.434;2022-09-09T05:40:54;22.60;59.70
16901;DHT22;8567;52.540;6.434;2022-09-09T05:43:22;22.60;59.70
16901;DHT22;8567;52.540;6.434;2022-09-09T05:45:59;22.60;59.70
16901;DHT22;8567;52.540;6.434;2022-09-09T05:48:28;22.60;59.70
16901;DHT22;8567;52.540;6.434;2022-09-09T05:50:57;22.60;59.70
16901;DHT22;8567;52.540;6.434;2022-09-09T05:53:24;22.60;59.70
16901;DHT22;8567;52.540;6.434;2022-09-09T05:55:59;22.60;59.60
16901;DHT22;8567;52.540;6.434;2022-09-09T05:58:26;22.60;59.60
16901;DHT22;8567;52.540;6.434;2022-09-09T06:00:53;22.60;59.60
16901;DHT22;8567;52.540;6.434;2022-09-09T06:03:26;22.60;59.60
16901;DHT22;8567;52.540;6.434;2022-09-09T06:05:58;22.60;59.60
16901;DHT22;8567;52.540;6.434;2022-09-09T06:08:25;22.60;59.50
16901;DHT22;8567;52.540;6.434;2022-09-09T06:10:52;22.60;59.50
16901;DHT22;8567;52.540;6.434;2022-09-09T06:13:19;22.60;59.50
16901;DHT22;8567;52.540;6.434;2022-09-09T06:15:50;22.60;59.50
16901;DHT22;8567;52.540;6.434;2022-09-09T06:18:17;22.60;59.50
16901;DHT22;8567;52.540;6.434;2022-09-09T06:20:53;22.60;59.50
16901;DHT22;8567;52.540;6.434;2022-09-09T06:23:21;22.60;59.50
16901;DHT22;8567;52.540;6.434;2022-09-09T06:25:48;22.60;59.50
16901;DHT22;8567;52.540;6.434;2022-09-09T06:28:16;22.60;59.50
16901;DHT22;8567;52.540;6.434;2022-09-09T06:30:43;22.60;59.50
16901;DHT22;8567;52.540;6.434;2022-09-09T06:33:10;22.60;59.50
16901;DHT22;8567;52.540;6.434;2022-09-09T06:35:37;22.60;59.50
16901;DHT22;8567;52.540;6.434;2022-09-09T06:38:04;22.60;59.50
16901;DHT22;8567;52.540;6.434;2022-09-09T06:40:32;22.60;59.50
16901;DHT22;8567;52.540;6.434;2022-09-09T06:42:59;22.60;59.50
16901;DHT22;8567;52.540;6.434;2022-09-09T06:45:27;22.60;59.50
16901;DHT22;8567;52.540;6.434;2022-09-09T06:47:55;22.60;59.50
16901;DHT22;8567;52.540;6.434;2022-09-09T06:50:22;22.60;59.40
16901;DHT22;8567;52.540;6.434;2022-09-09T06:52:49;22.60;59.40
16901;DHT22;8567;52.540;6.434;2022-09-09T06:55:17;22.60;59.40
16901;DHT22;8567;52.540;6.434;2022-09-09T06:57:45;22.60;58.40
16901;DHT22;8567;52.540;6.434;2022-09-09T07:00:13;22.30;59.20
16901;DHT22;8567;52.540;6.434;2022-09-09T07:02:40;22.40;59.20
16901;DHT22;8567;52.540;6.434;2022-09-09T07:05:07;22.50;59.10
16901;DHT22;8567;52.540;6.434;2022-09-09T07:07:34;22.60;59.00
16901;DHT22;8567;52.540;6.434;2022-09-09T07:10:02;22.60;58.90
16901;DHT22;8567;52.540;6.434;2022-09-09T07:12:30;22.70;59.00
16901;DHT22;8567;52.540;6.434;2022-09-09T07:14:58;22.70;59.00
16901;DHT22;8567;52.540;6.434;2022-09-09T07:17:25;22.70;58.90
16901;DHT22;8567;52.540;6.434;2022-09-09T07:19:53;22.80;59.00
16901;DHT22;8567;52.540;6.434;2022-09-09T07:22:20;22.80;59.00
16901;DHT22;8567;52.540;6.434;2022-09-09T07:24:48;22.80;58.90
16901;DHT22;8567;52.540;6.434;2022-09-09T07:27:15;22.90;59.10
16901;DHT22;8567;52.540;6.434;2022-09-09T07:29:41;22.90;59.20
16901;DHT22;8567;52.540;6.434;2022-09-09T07:32:09;22.90;59.10
16901;DHT22;8567;52.540;6.434;2022-09-09T07:34:36;23.00;58.90
16901;DHT22;8567;52.540;6.434;2022-09-09T07:37:03;23.00;59.10
16901;DHT22;8567;52.540;6.434;2022-09-09T07:39:30;23.00;58.90
16901;DHT22;8567;52.540;6.434;2022-09-09T07:41:57;23.10;59.00
16901;DHT22;8567;52.540;6.434;2022-09-09T07:44:24;23.00;59.10
16901;DHT22;8567;52.540;6.434;2022-09-09T07:46:52;23.10;59.10
16901;DHT22;8567;52.540;6.434;2022-09-09T07:49:20;23.00;59.10
16901;DHT22;8567;52.540;6.434;2022-09-09T07:51:48;23.10;59.10
16901;DHT22;8567;52.540;6.434;2022-09-09T07:54:16;23.00;59.30
16901;DHT22;8567;52.540;6.434;2022-09-09T07:56:45;23.00;59.40
16901;DHT22;8567;52.540;6.434;2022-09-09T07:59:13;23.00;59.40
16901;DHT22;8567;52.540;6.434;2022-09-09T08:01:42;23.10;59.30
16901;DHT22;8567;52.540;6.434;2022-09-09T08:04:11;23.20;59.00
16901;DHT22;8567;52.540;6.434;2022-09-09T08:06:44;23.30;58.70
16901;DHT22;8567;52.540;6.434;2022-09-09T08:09:12;23.30;58.60
16901;DHT22;8567;52.540;6.434;2022-09-09T08:11:40;23.30;58.60
16901;DHT22;8567;52.540;6.434;2022-09-09T08:14:07;23.30;59.00
16901;DHT22;8567;52.540;6.434;2022-09-09T08:16:37;23.20;59.40
16901;DHT22;8567;52.540;6.434;2022-09-09T08:19:04;23.20;59.40
16901;DHT22;8567;52.540;6.434;2022-09-09T08:21:34;23.20;59.60
16901;DHT22;8567;52.540;6.434;2022-09-09T08:24:03;23.20;59.10
16901;DHT22;8567;52.540;6.434;2022-09-09T08:26:33;23.30;58.80
16901;DHT22;8567;52.540;6.434;2022-09-09T08:29:01;23.30;58.70
16901;DHT22;8567;52.540;6.434;2022-09-09T08:31:30;23.30;58.60
16901;DHT22;8567;52.540;6.434;2022-09-09T08:33:58;23.20;58.80
16901;DHT22;8567;52.540;6.434;2022-09-09T08:36:27;23.20;58.80
16901;DHT22;8567;52.540;6.434;2022-09-09T08:38:56;23.20;58.70
16901;DHT22;8567;52.540;6.434;2022-09-09T08:41:43;23.20;58.70
16901;DHT22;8567;52.540;6.434;2022-09-09T08:44:19;23.20;58.80
16901;DHT22;8567;52.540;6.434;2022-09-09T08:46:52;23.20;58.80
16901;DHT22;8567;52.540;6.434;2022-09-09T08:49:57;23.20;58.80
16901;DHT22;8567;52.540;6.434;2022-09-09T08:52:28;23.30;59.10
16901;DHT22;8567;52.540;6.434;2022-09-09T08:54:58;23.30;59.10
16901;DHT22;8567;52.540;6.434;2022-09-09T08:57:28;23.30;59.10
16901;DHT22;8567;52.540;6.434;2022-09-09T08:59:57;23.30;59.30
16901;DHT22;8567;52.540;6.434;2022-09-09T09:02:29;23.30;59.30
16901;DHT22;8567;52.540;6.434;2022-09-09T09:05:12;23.40;59.30
16901;DHT22;8567;52.540;6.434;2022-09-09T09:07:53;23.40;59.20
16901;DHT22;8567;52.540;6.434;2022-09-09T09:10:34;23.50;59.00
16901;DHT22;8567;52.540;6.434;2022-09-09T09:13:08;23.50;59.10
16901;DHT22;8567;52.540;6.434;2022-09-09T09:15:38;23.50;59.10
16901;DHT22;8567;52.540;6.434;2022-09-09T09:18:10;23.50;59.00
16901;DHT22;8567;52.540;6.434;2022-09-09T09:20:42;23.50;59.10
16901;DHT22;8567;52.540;6.434;2022-09-09T09:23:21;23.50;59.10
16901;DHT22;8567;52.540;6.434;2022-09-09T09:25:48;23.50;59.20
16901;DHT22;8567;52.540;6.434;2022-09-09T09:28:20;23.40;59.00
16901;DHT22;8567;52.540;6.434;2022-09-09T09:30:51;23.40;59.10
16901;DHT22;8567;52.540;6.434;2022-09-09T09:33:22;23.40;59.10
16901;DHT22;8567;52.540;6.434;2022-09-09T09:35:50;23.40;58.90
16901;DHT22;8567;52.540;6.434;2022-09-09T09:38:20;23.30;59.10
16901;DHT22;8567;52.540;6.434;2022-09-09T09:40:52;23.30;59.10
16901;DHT22;8567;52.540;6.434;2022-09-09T09:43:26;23.30;59.10
16901;DHT22;8567;52.540;6.434;2022-09-09T09:45:54;23.30;59.20
16901;DHT22;8567;52.540;6.434;2022-09-09T09:48:24;23.30;59.10
16901;DHT22;8567;52.540;6.434;2022-09-09T09:50:52;23.30;59.20
16901;DHT22;8567;52.540;6.434;2022-09-09T09:53:23;23.30;59.20
16901;DHT22;8567;52.540;6.434;2022-09-09T09:55:55;23.30;59.20
16901;DHT22;8567;52.540;6.434;2022-09-09T09:58:24;23.30;59.20
16901;DHT22;8567;52.540;6.434;2022-09-09T10:00:53;23.30;59.20
16901;DHT22;8567;52.540;6.434;2022-09-09T10:03:24;23.30;59.20
16901;DHT22;8567;52.540;6.434;2022-09-09T10:05:51;23.30;59.10
16901;DHT22;8567;52.540;6.434;2022-09-09T10:08:19;23.30;59.20
16901;DHT22;8567;52.540;6.434;2022-09-09T10:10:57;23.40;59.10
16901;DHT22;8567;52.540;6.434;2022-09-09T10:13:33;23.40;59.10
16901;DHT22;8567;52.540;6.434;2022-09-09T10:16:14;23.30;59.10
16901;DHT22;8567;52.540;6.434;2022-09-09T10:18:52;23.40;59.10
16901;DHT22;8567;52.540;6.434;2022-09-09T10:21:46;23.30;59.10
16901;DHT22;8567;52.540;6.434;2022-09-09T10:27:15;23.30;59.10
16901;DHT22;8567;52.540;6.434;2022-09-09T10:30:04;23.30;59.10
16901;DHT22;8567;52.540;6.434;2022-09-09T10:32:41;23.30;59.00
16901;DHT22;8567;52.540;6.434;2022-09-09T10:35:17;23.30;59.10
16901;DHT22;8567;52.540;6.434;2022-09-09T10:38:11;23.30;59.00
16901;DHT22;8567;52.540;6.434;2022-09-09T10:40:44;23.30;59.10
16901;DHT22;8567;52.540;6.434;2022-09-09T10:43:24;23.30;59.00
16901;DHT22;8567;52.540;6.434;2022-09-09T10:46:03;23.40;58.90
16901;DHT22;8567;52.540;6.434;2022-09-09T10:48:43;23.40;59.20
16901;DHT22;8567;52.540;6.434;2022-09-09T10:51:23;23.40;59.20
16901;DHT22;8567;52.540;6.434;2022-09-09T10:56:36;23.40;59.60
16901;DHT22;8567;52.540;6.434;2022-09-09T10:59:10;23.40;59.60
16901;DHT22;8567;52.540;6.434;2022-09-09T11:01:42;23.40;59.80
16901;DHT22;8567;52.540;6.434;2022-09-09T11:04:15;23.40;59.90
16901;DHT22;8567;52.540;6.434;2022-09-09T11:06:46;23.40;59.70
16901;DHT22;8567;52.540;6.434;2022-09-09T11:09:17;23.40;59.30
16901;DHT22;8567;52.540;6.434;2022-09-09T11:11:49;23.40;59.30
16901;DHT22;8567;52.540;6.434;2022-09-09T11:14:21;23.50;59.40
16901;DHT22;8567;52.540;6.434;2022-09-09T11:16:53;23.50;59.20
16901;DHT22;8567;52.540;6.434;2022-09-09T11:19:26;23.60;59.30
16901;DHT22;8567;52.540;6.434;2022-09-09T11:21:55;23.60;59.40
16901;DHT22;8567;52.540;6.434;2022-09-09T11:24:31;23.60;59.40
16901;DHT22;8567;52.540;6.434;2022-09-09T11:27:02;23.60;59.40
16901;DHT22;8567;52.540;6.434;2022-09-09T11:29:52;23.60;59.60
16901;DHT22;8567;52.540;6.434;2022-09-09T11:32:54;23.70;59.60
16901;DHT22;8567;52.540;6.434;2022-09-09T11:35:33;23.70;59.40
16901;DHT22;8567;52.540;6.434;2022-09-09T11:38:16;23.70;59.50
16901;DHT22;8567;52.540;6.434;2022-09-09T11:40:45;23.70;59.60
16901;DHT22;8567;52.540;6.434;2022-09-09T11:43:15;23.80;59.40
16901;DHT22;8567;52.540;6.434;2022-09-09T11:45:51;23.80;59.30
16901;DHT22;8567;52.540;6.434;2022-09-09T11:48:28;23.80;59.40
16901;DHT22;8567;52.540;6.434;2022-09-09T11:51:04;23.80;59.40
16901;DHT22;8567;52.540;6.434;2022-09-09T11:53:33;23.80;59.40
16901;DHT22;8567;52.540;6.434;2022-09-09T11:56:06;23.80;59.30
16901;DHT22;8567;52.540;6.434;2022-09-09T11:58:38;23.80;59.50
16901;DHT22;8567;52.540;6.434;2022-09-09T12:01:26;23.70;59.70
16901;DHT22;8567;52.540;6.434;2022-09-09T12:06:51;23.80;59.60
16901;DHT22;8567;52.540;6.434;2022-09-09T12:09:23;23.80;59.40
16901;DHT22;8567;52.540;6.434;2022-09-09T12:11:51;23.90;59.30
16901;DHT22;8567;52.540;6.434;2022-09-09T12:14:21;23.90;59.20
16901;DHT22;8567;52.540;6.434;2022-09-09T12:16:48;23.90;59.20
16901;DHT22;8567;52.540;6.434;2022-09-09T12:19:19;23.90;59.10
16901;DHT22;8567;52.540;6.434;2022-09-09T12:21:51;23.90;59.00
16901;DHT22;8567;52.540;6.434;2022-09-09T12:24:25;23.90;59.00
16901;DHT22;8567;52.540;6.434;2022-09-09T12:26:59;23.80;59.10
16901;DHT22;8567;52.540;6.434;2022-09-09T12:29:33;23.80;59.20
16901;DHT22;8567;52.540;6.434;2022-09-09T12:32:07;23.80;59.30
16901;DHT22;8567;52.540;6.434;2022-09-09T12:34:39;23.80;59.20
16901;DHT22;8567;52.540;6.434;2022-09-09T12:37:14;23.80;59.20
16901;DHT22;8567;52.540;6.434;2022-09-09T12:39:45;23.80;59.20
16901;DHT22;8567;52.540;6.434;2022-09-09T12:42:17;23.80;59.20
16901;DHT22;8567;52.540;6.434;2022-09-09T12:44:55;23.80;59.20
16901;DHT22;8567;52.540;6.434;2022-09-09T12:47:29;23.80;59.20
16901;DHT22;8567;52.540;6.434;2022-09-09T12:49:59;23.80;59.30
16901;DHT22;8567;52.540;6.434;2022-09-09T12:52:29;23.80;59.30
16901;DHT22;8567;52.540;6.434;2022-09-09T12:54:58;23.80;59.30
16901;DHT22;8567;52.540;6.434;2022-09-09T12:57:26;23.70;59.20
16901;DHT22;8567;52.540;6.434;2022-09-09T13:00:05;23.70;59.20
16901;DHT22;8567;52.540;6.434;2022-09-09T13:02:32;23.70;59.20
16901;DHT22;8567;52.540;6.434;2022-09-09T13:05:14;23.70;59.10
16901;DHT22;8567;52.540;6.434;2022-09-09T13:07:41;23.70;59.10
16901;DHT22;8567;52.540;6.434;2022-09-09T13:10:11;23.80;59.30
16901;DHT22;8567;52.540;6.434;2022-09-09T13:12:38;23.70;59.30
16901;DHT22;8567;52.540;6.434;2022-09-09T13:15:14;23.80;59.20
16901;DHT22;8567;52.540;6.434;2022-09-09T13:17:50;23.80;59.30
16901;DHT22;8567;52.540;6.434;2022-09-09T13:20:20;23.80;59.40
16901;DHT22;8567;52.540;6.434;2022-09-09T13:22:48;23.80;59.30
16901;DHT22;8567;52.540;6.434;2022-09-09T13:25:21;23.80;59.30
16901;DHT22;8567;52.540;6.434;2022-09-09T13:27:59;23.80;59.20
16901;DHT22;8567;52.540;6.434;2022-09-09T13:30:29;23.80;59.20
16901;DHT22;8567;52.540;6.434;2022-09-09T13:33:02;23.90;59.20
16901;DHT22;8567;52.540;6.434;2022-09-09T13:35:31;23.90;59.80
16901;DHT22;8567;52.540;6.434;2022-09-09T13:37:58;23.90;60.10
16901;DHT22;8567;52.540;6.434;2022-09-09T13:40:25;23.90;59.70
16901;DHT22;8567;52.540;6.434;2022-09-09T13:42:55;23.90;59.50
16901;DHT22;8567;52.540;6.434;2022-09-09T13:45:25;23.90;59.50
16901;DHT22;8567;52.540;6.434;2022-09-09T13:47:53;23.90;59.50
16901;DHT22;8567;52.540;6.434;2022-09-09T13:50:22;24.00;59.40
16901;DHT22;8567;52.540;6.434;2022-09-09T13:52:52;24.00;59.40
16901;DHT22;8567;52.540;6.434;2022-09-09T13:55:21;24.00;59.50
16901;DHT22;8567;52.540;6.434;2022-09-09T13:57:52;24.00;59.50
16901;DHT22;8567;52.540;6.434;2022-09-09T14:00:20;24.00;59.40
16901;DHT22;8567;52.540;6.434;2022-09-09T14:02:47;24.00;59.60
16901;DHT22;8567;52.540;6.434;2022-09-09T14:05:13;24.00;59.60
16901;DHT22;8567;52.540;6.434;2022-09-09T14:07:41;24.00;59.70
16901;DHT22;8567;52.540;6.434;2022-09-09T14:10:11;24.00;59.90
16901;DHT22;8567;52.540;6.434;2022-09-09T14:12:38;24.00;59.80
16901;DHT22;8567;52.540;6.434;2022-09-09T14:15:06;23.70;57.30
16901;DHT22;8567;52.540;6.434;2022-09-09T14:17:33;23.60;57.60
16901;DHT22;8567;52.540;6.434;2022-09-09T14:20:01;23.40;57.70
16901;DHT22;8567;52.540;6.434;2022-09-09T14:22:28;23.50;57.90
16901;DHT22;8567;52.540;6.434;2022-09-09T14:24:55;23.60;58.30
16901;DHT22;8567;52.540;6.434;2022-09-09T14:27:24;23.70;58.40
16901;DHT22;8567;52.540;6.434;2022-09-09T14:29:51;23.70;58.10
16901;DHT22;8567;52.540;6.434;2022-09-09T14:32:18;23.80;57.90
16901;DHT22;8567;52.540;6.434;2022-09-09T14:34:46;23.80;57.90
16901;DHT22;8567;52.540;6.434;2022-09-09T14:37:15;23.80;57.80
16901;DHT22;8567;52.540;6.434;2022-09-09T14:39:41;23.80;57.80
16901;DHT22;8567;52.540;6.434;2022-09-09T14:42:09;23.70;57.70
16901;DHT22;8567;52.540;6.434;2022-09-09T14:44:37;23.70;57.80
16901;DHT22;8567;52.540;6.434;2022-09-09T14:47:04;23.70;57.60
16901;DHT22;8567;52.540;6.434;2022-09-09T14:49:31;23.70;57.70
16901;DHT22;8567;52.540;6.434;2022-09-09T14:51:58;23.70;57.60
16901;DHT22;8567;52.540;6.434;2022-09-09T14:54:24;23.70;57.60
16901;DHT22;8567;52.540;6.434;2022-09-09T14:56:51;23.70;57.70
16901;DHT22;8567;52.540;6.434;2022-09-09T14:59:18;23.70;57.70
16901;DHT22;8567;52.540;6.434;2022-09-09T15:01:46;23.70;57.60
16901;DHT22;8567;52.540;6.434;2022-09-09T15:04:13;23.70;57.60
16901;DHT22;8567;52.540;6.434;2022-09-09T15:06:40;23.70;57.50
16901;DHT22;8567;52.540;6.434;2022-09-09T15:09:09;23.70;57.50
16901;DHT22;8567;52.540;6.434;2022-09-09T15:11:37;23.70;57.40
16901;DHT22;8567;52.540;6.434;2022-09-09T15:14:05;23.70;57.40
16901;DHT22;8567;52.540;6.434;2022-09-09T15:16:31;23.70;57.40
16901;DHT22;8567;52.540;6.434;2022-09-09T15:19:01;23.80;57.50
16901;DHT22;8567;52.540;6.434;2022-09-09T15:21:30;23.80;57.50
16901;DHT22;8567;52.540;6.434;2022-09-09T15:23:57;23.80;57.60
16901;DHT22;8567;52.540;6.434;2022-09-09T15:26:24;23.80;57.60
16901;DHT22;8567;52.540;6.434;2022-09-09T15:28:51;23.80;57.60
16901;DHT22;8567;52.540;6.434;2022-09-09T15:31:19;23.80;57.70
16901;DHT22;8567;52.540;6.434;2022-09-09T15:33:47;23.80;57.70
16901;DHT22;8567;52.540;6.434;2022-09-09T15:36:18;23.80;57.70
16901;DHT22;8567;52.540;6.434;2022-09-09T15:38:45;23.70;57.80
16901;DHT22;8567;52.540;6.434;2022-09-09T15:41:12;23.70;57.80
16901;DHT22;8567;52.540;6.434;2022-09-09T15:43:42;23.70;57.90
16901;DHT22;8567;52.540;6.434;2022-09-09T15:46:23;23.70;57.90
16901;DHT22;8567;52.540;6.434;2022-09-09T15:48:55;23.70;57.90
16901;DHT22;8567;52.540;6.434;2022-09-09T15:51:24;23.70;57.90
16901;DHT22;8567;52.540;6.434;2022-09-09T15:53:55;23.70;58.00
16901;DHT22;8567;52.540;6.434;2022-09-09T15:56:22;23.60;58.00
16901;DHT22;8567;52.540;6.434;2022-09-09T15:58:49;23.60;57.80
16901;DHT22;8567;52.540;6.434;2022-09-09T16:01:17;23.40;57.30
16901;DHT22;8567;52.540;6.434;2022-09-09T16:03:45;23.10;57.70
16901;DHT22;8567;52.540;6.434;2022-09-09T16:06:13;22.90;57.80
16901;DHT22;8567;52.540;6.434;2022-09-09T16:08:43;22.80;57.80
16901;DHT22;8567;52.540;6.434;2022-09-09T16:11:12;22.70;57.80
16901;DHT22;8567;52.540;6.434;2022-09-09T16:13:41;22.70;57.80
16901;DHT22;8567;52.540;6.434;2022-09-09T16:16:09;22.70;57.70
16901;DHT22;8567;52.540;6.434;2022-09-09T16:18:38;22.60;57.70